Aviation Digital Data Service (ADDS)

Output produced by METARs form (0222 UTC 06 May 2015)
found at http://aviationweather.gov/adds/metars/
 
KBAF 052324Z 0600/0624 35006KT P6SM BKN150 
     FM061700 17004KT P6SM SCT130 
     FM062100 23006KT P6SM FEW200